Airfield :
LOGIN :

Register | Disclaimer

   EN    FR    IT 

 










Legend :    VFR   Marginal VFR   IFR   Intensive IFR   Very Intensive IFR
Visi :
Ceiling :
>= 8 km
>= 3000ft
5 to 8 km
1000 to 3000 ft
1500m to 5 km
500 to 1000 ft
800 to 1500m
200 to 500 ft
< 800m
< 200 ft
Symbols :   Thunderstorms  Fog  Heavy snow  Heavy precipitations  Wind > 20 kt
SIGMETs :     Misc.  Thunderstorms  Icing  Turbulence  Mountain Waves  Volcanic Ashes






- Airport Elevation : 1411 ft
- IATA code : GVA


LSGG - Genève Cointrin

CURRENT METAR :
  • 280450Z 22005KT 7000 RA SCT020 OVC025 08/07 Q1016 NOSIG

EXPIRED METARs :
  • 280420Z AUTO 25007KT 9999 RA FEW020 BKN027 08/06 Q1016 NOSIG
  • 280350Z AUTO 25004KT 200V280 9999 -RA BKN048 08/06 Q1016 NOSIG
  • 280320Z AUTO 27003KT 9999 -RA FEW045 BKN050 08/06 Q1015 NOSIG
  • 280250Z AUTO 26005KT 9999 BKN060 BKN070 09/05 Q1015 NOSIG
  • 280220Z AUTO 21010KT 9999 -RA BKN055 10/05 Q1015 NOSIG

TAF TAF LSGG
Valid from the 28 at 03:00 until the 29 at 09:00 UTC


280225Z 2803/2909 22007KT 9999 BKN050 TX16/2814Z TN08/2805Z TN10/2905Z
TEMPO 2803/2809 SHRA
ATIS : +41 22 417 40 81



MET'MAP, your aeronautical weather chart ! - Copyright ORBIFLY December 2007 - Disclaimer

ORBIFLY MET'MAP TEAM :

Programming & Development : Alexandra Zaïnal
Concept & original design : Baudouin d'Aumeries
Assistance for programming : Marc-Olivier Méhu
Technical & hardware support : Manuel Goepfert

Contact : metmap@orbifly.com




SOURCES & CREDITS :

   NOAA